Manama, Bahrain

11:08 PM AST on March 30, 2015 (GMT +0300)
Zallaq | | Change Station
CLOSE
Current Station
Personal Weather Station
Location: Bahrain,
Elevation: 20 ft
Nearby Weather Stations

Elev 20 ft 26.05 °N, 50.48 °E | Updated 6 seconds ago

Clear
Clear
79.0 °F
Feels Like 79 °F
N
3.3
Wind Variable Wind from SSE
Gusts 5.0 mph

Today
High -- | Low -- °F
--% Chance of Precip.
Yesterday
High -- | Low -- °F
Precip. -- in
5:31 AM 5:53 PM
Waxing Gibbous, 82% visible
Pressure 29.68 in
Visibility -9999.0 miles
Clouds
Heat Index 79 °F
Dew Point 53 °F
Humidity 40%
Rainfall in
Snow Depth Not available.
UV Not available.
Pollen Not available.
Air Quality Not available.
Flu Activity Not available.
METAR OEDR 302000Z VRB09KT CAVOK 26/13 Q1005 NOSIG

More Conditions Fewer Conditions

Pressure 29.68 in
Visibility -9999.0 miles
Clouds
Heat Index 79 °F
Dew Point 53 °F
Humidity 40%
Rainfall in
Snow Depth Not available.
UV Not available.
Pollen Not available.
Air Quality Not available.
Flu Activity Not available.
METAR OEDR 302000Z VRB09KT CAVOK 26/13 Q1005 NOSIG

More Conditions Fewer Conditions

10-Day Weather Forecast

Almanac

Astronomy

Mar. 30, 2015 Rise Set
Actual Time
Civil Twilight
Nautical Twilight
Astronomical Twilight
Moon
Length of Visible Light
Length of Day
Tomorrow will be .
, % of the Moon is Illuminated

Today's Extremes

Country Highs Country Lows

Community

WunderPhotos

Upload Photos

1,809,578 photos uploaded!

WunderBlogs® & News

Nearby

Air Quality

  Air Quality AQ Index Pollutant
Not available.

Snow Depth

Station Depth Elevation

Earthquake Activity

City Distance Mag. Time & Date
Minimum magnitude displayed is 2.5.

Coastal Water Temperatures

Place Temperature

Stations

Nearby Weather Stations

Station Location Temp. Windchill Dew Point Humidity Wind Precip. Elev Updated Type